DAOF

Tindouf Airport

Tindouf, Algeria
METAR DAOF 231400Z 26012KT CAVOK 30/06 Q1012
Observed Flight Rules
May-23 @ 14:00 UTC (an hour ago) Visual Flight Rules
Wind Visibility Clouds
260° at 12 knots 10,000+ meters
  • Clear skies
Temperatures Readings
Current 30°C / 86°F
Dewpoint 6°C / 43°F
Humidity 22%
Altimeter 29.88" Hg
Pressure 1012 hPa
Elevation 431
METAR DAOF 231400Z 26012KT CAVOK 30/06 Q1012
Observed Flight Rules
May-23 @ 14:00 UTC
(an hour ago)
VFR
Wind Visibility
260° at 12 knots 10,000+ meters
Clouds
  • Clear skies
Temperature Dewpoint
30°C / 86°F 6°C / 43°F
Humidity Altimeter Pressure
22% 29.88" Hg 1012 hPa